sensor_id;sensor_type;location;lat;lon;timestamp;P1;P2;P0
14880;PMS7003;7533;51.278;12.588;2024-02-23T00:02:07;0.50;0.00;0.00
14880;PMS7003;7533;51.278;12.588;2024-02-23T00:07:09;0.00;0.00;0.00
14880;PMS7003;7533;51.278;12.588;2024-02-23T00:12:12;0.00;0.00;0.00
14880;PMS7003;7533;51.278;12.588;2024-02-23T00:17:17;0.00;0.00;0.00
14880;PMS7003;7533;51.278;12.588;2024-02-23T00:22:20;0.00;0.00;0.00
14880;PMS7003;7533;51.278;12.588;2024-02-23T00:27:22;0.00;0.00;0.00
14880;PMS7003;7533;51.278;12.588;2024-02-23T00:32:27;0.00;0.00;0.00
14880;PMS7003;7533;51.278;12.588;2024-02-23T00:37:30;0.00;0.00;0.00
14880;PMS7003;7533;51.278;12.588;2024-02-23T00:42:36;0.00;0.00;0.00
14880;PMS7003;7533;51.278;12.588;2024-02-23T00:47:40;0.00;0.00;0.00
14880;PMS7003;7533;51.278;12.588;2024-02-23T00:52:45;0.00;0.00;0.00
14880;PMS7003;7533;51.278;12.588;2024-02-23T00:57:48;1.00;0.00;0.00
14880;PMS7003;7533;51.278;12.588;2024-02-23T01:02:52;0.50;0.50;0.00
14880;PMS7003;7533;51.278;12.588;2024-02-23T01:07:55;0.00;0.00;0.00
14880;PMS7003;7533;51.278;12.588;2024-02-23T01:12:58;0.00;0.00;0.00
14880;PMS7003;7533;51.278;12.588;2024-02-23T01:18:03;0.00;0.00;0.00
14880;PMS7003;7533;51.278;12.588;2024-02-23T01:23:07;0.00;0.00;0.00
14880;PMS7003;7533;51.278;12.588;2024-02-23T01:28:10;0.00;0.00;0.00
14880;PMS7003;7533;51.278;12.588;2024-02-23T01:33:14;0.00;0.00;0.00
14880;PMS7003;7533;51.278;12.588;2024-02-23T01:38:17;0.00;0.00;0.00
14880;PMS7003;7533;51.278;12.588;2024-02-23T01:43:22;0.00;0.00;0.00
14880;PMS7003;7533;51.278;12.588;2024-02-23T01:48:26;0.00;0.00;0.00
14880;PMS7003;7533;51.278;12.588;2024-02-23T01:53:29;0.00;0.00;0.00
14880;PMS7003;7533;51.278;12.588;2024-02-23T01:58:33;0.00;0.00;0.00
14880;PMS7003;7533;51.278;12.588;2024-02-23T02:03:39;0.00;0.00;0.00
14880;PMS7003;7533;51.278;12.588;2024-02-23T02:08:42;0.00;0.00;0.00
14880;PMS7003;7533;51.278;12.588;2024-02-23T02:13:45;0.00;0.00;0.00
14880;PMS7003;7533;51.278;12.588;2024-02-23T02:18:49;1.00;1.00;0.00
14880;PMS7003;7533;51.278;12.588;2024-02-23T02:23:52;0.00;0.00;0.00
14880;PMS7003;7533;51.278;12.588;2024-02-23T02:28:55;0.00;0.00;0.00
14880;PMS7003;7533;51.278;12.588;2024-02-23T02:33:59;0.00;0.00;0.00
14880;PMS7003;7533;51.278;12.588;2024-02-23T02:39:02;0.00;0.00;0.00
14880;PMS7003;7533;51.278;12.588;2024-02-23T02:44:09;0.00;0.00;0.00
14880;PMS7003;7533;51.278;12.588;2024-02-23T02:49:13;0.00;0.00;0.00
14880;PMS7003;7533;51.278;12.588;2024-02-23T02:54:16;0.00;0.00;0.00
14880;PMS7003;7533;51.278;12.588;2024-02-23T02:59:19;0.00;0.00;0.00
14880;PMS7003;7533;51.278;12.588;2024-02-23T03:04:26;0.00;0.00;0.00
14880;PMS7003;7533;51.278;12.588;2024-02-23T03:09:29;0.00;0.00;0.00
14880;PMS7003;7533;51.278;12.588;2024-02-23T03:14:32;0.00;0.00;0.00
14880;PMS7003;7533;51.278;12.588;2024-02-23T03:19:40;0.00;0.00;0.00
14880;PMS7003;7533;51.278;12.588;2024-02-23T03:24:52;0.00;0.00;0.00
14880;PMS7003;7533;51.278;12.588;2024-02-23T03:29:59;0.00;0.00;0.00
14880;PMS7003;7533;51.278;12.588;2024-02-23T03:35:04;0.00;0.00;0.00
14880;PMS7003;7533;51.278;12.588;2024-02-23T03:40:08;0.00;0.00;0.00
14880;PMS7003;7533;51.278;12.588;2024-02-23T03:45:12;0.00;0.00;0.00
14880;PMS7003;7533;51.278;12.588;2024-02-23T03:50:16;0.00;0.00;0.00
14880;PMS7003;7533;51.278;12.588;2024-02-23T03:55:19;0.00;0.00;0.00
14880;PMS7003;7533;51.278;12.588;2024-02-23T04:00:22;0.00;0.00;0.00
14880;PMS7003;7533;51.278;12.588;2024-02-23T04:05:26;0.00;0.00;0.00
14880;PMS7003;7533;51.278;12.588;2024-02-23T04:10:29;0.00;0.00;0.00
14880;PMS7003;7533;51.278;12.588;2024-02-23T04:15:31;0.00;0.00;0.00
14880;PMS7003;7533;51.278;12.588;2024-02-23T04:20:36;0.00;0.00;0.00
14880;PMS7003;7533;51.278;12.588;2024-02-23T04:25:39;0.00;0.00;0.00
14880;PMS7003;7533;51.278;12.588;2024-02-23T04:30:42;0.00;0.00;0.00
14880;PMS7003;7533;51.278;12.588;2024-02-23T04:35:46;1.00;0.00;0.00
14880;PMS7003;7533;51.278;12.588;2024-02-23T04:40:49;0.00;0.00;0.00
14880;PMS7003;7533;51.278;12.588;2024-02-23T04:45:52;1.00;0.00;0.00
14880;PMS7003;7533;51.278;12.588;2024-02-23T04:50:56;0.00;0.00;0.00
14880;PMS7003;7533;51.278;12.588;2024-02-23T04:55:59;0.00;0.00;0.00
14880;PMS7003;7533;51.278;12.588;2024-02-23T05:01:02;0.50;0.00;0.00
14880;PMS7003;7533;51.278;12.588;2024-02-23T05:06:06;0.00;0.00;0.00
14880;PMS7003;7533;51.278;12.588;2024-02-23T05:11:09;0.00;0.00;0.00
14880;PMS7003;7533;51.278;12.588;2024-02-23T05:16:13;0.00;0.00;0.00
14880;PMS7003;7533;51.278;12.588;2024-02-23T05:21:17;0.00;0.00;0.00
14880;PMS7003;7533;51.278;12.588;2024-02-23T05:26:20;0.00;0.00;0.00
14880;PMS7003;7533;51.278;12.588;2024-02-23T05:31:23;0.00;0.00;0.00
14880;PMS7003;7533;51.278;12.588;2024-02-23T05:36:48;0.00;0.00;0.00
14880;PMS7003;7533;51.278;12.588;2024-02-23T05:41:52;0.00;0.00;0.00
14880;PMS7003;7533;51.278;12.588;2024-02-23T05:46:55;0.25;0.00;0.00
14880;PMS7003;7533;51.278;12.588;2024-02-23T05:51:59;0.00;0.00;0.00
14880;PMS7003;7533;51.278;12.588;2024-02-23T05:57:02;0.00;0.00;0.00
14880;PMS7003;7533;51.278;12.588;2024-02-23T06:02:06;0.25;0.00;0.00
14880;PMS7003;7533;51.278;12.588;2024-02-23T06:07:11;0.00;0.00;0.00
14880;PMS7003;7533;51.278;12.588;2024-02-23T06:12:14;0.00;0.00;0.00
14880;PMS7003;7533;51.278;12.588;2024-02-23T06:17:17;0.00;0.00;0.00
14880;PMS7003;7533;51.278;12.588;2024-02-23T06:22:22;0.00;0.00;0.00
14880;PMS7003;7533;51.278;12.588;2024-02-23T06:27:26;0.00;0.00;0.00
14880;PMS7003;7533;51.278;12.588;2024-02-23T06:32:29;0.00;0.00;0.00
14880;PMS7003;7533;51.278;12.588;2024-02-23T06:37:33;0.00;0.00;0.00
14880;PMS7003;7533;51.278;12.588;2024-02-23T06:42:36;0.00;0.00;0.00
14880;PMS7003;7533;51.278;12.588;2024-02-23T06:47:39;0.00;0.00;0.00
14880;PMS7003;7533;51.278;12.588;2024-02-23T06:52:45;0.00;0.00;0.00
14880;PMS7003;7533;51.278;12.588;2024-02-23T06:57:49;0.00;0.00;0.00
14880;PMS7003;7533;51.278;12.588;2024-02-23T07:02:52;0.00;0.00;0.00
14880;PMS7003;7533;51.278;12.588;2024-02-23T07:07:56;0.00;0.00;0.00
14880;PMS7003;7533;51.278;12.588;2024-02-23T07:13:01;0.00;0.00;0.00
14880;PMS7003;7533;51.278;12.588;2024-02-23T07:18:30;0.00;0.00;0.00
14880;PMS7003;7533;51.278;12.588;2024-02-23T07:23:53;0.25;0.00;0.00
14880;PMS7003;7533;51.278;12.588;2024-02-23T07:28:56;0.00;0.00;0.00
14880;PMS7003;7533;51.278;12.588;2024-02-23T07:33:58;0.00;0.00;0.00
14880;PMS7003;7533;51.278;12.588;2024-02-23T07:39:03;0.00;0.00;0.00
14880;PMS7003;7533;51.278;12.588;2024-02-23T07:44:06;1.00;0.00;0.00
14880;PMS7003;7533;51.278;12.588;2024-02-23T07:49:09;0.00;0.00;0.00
14880;PMS7003;7533;51.278;12.588;2024-02-23T07:54:13;0.00;0.00;0.00
14880;PMS7003;7533;51.278;12.588;2024-02-23T07:59:16;0.00;0.00;0.00
14880;PMS7003;7533;51.278;12.588;2024-02-23T08:04:19;0.00;0.00;0.00
14880;PMS7003;7533;51.278;12.588;2024-02-23T08:09:23;0.00;0.00;0.00
14880;PMS7003;7533;51.278;12.588;2024-02-23T08:14:26;0.00;0.00;0.00
14880;PMS7003;7533;51.278;12.588;2024-02-23T08:19:29;0.00;0.00;0.00
14880;PMS7003;7533;51.278;12.588;2024-02-23T08:24:33;0.00;0.00;0.00
14880;PMS7003;7533;51.278;12.588;2024-02-23T08:29:37;0.00;0.00;0.00
14880;PMS7003;7533;51.278;12.588;2024-02-23T08:34:40;0.00;0.00;0.00
14880;PMS7003;7533;51.278;12.588;2024-02-23T08:39:44;0.00;0.00;0.00
14880;PMS7003;7533;51.278;12.588;2024-02-23T08:44:47;0.00;0.00;0.00
14880;PMS7003;7533;51.278;12.588;2024-02-23T08:49:50;0.00;0.00;0.00
14880;PMS7003;7533;51.278;12.588;2024-02-23T08:54:54;0.00;0.00;0.00
14880;PMS7003;7533;51.278;12.588;2024-02-23T08:59:57;0.00;0.00;0.00
14880;PMS7003;7533;51.278;12.588;2024-02-23T09:05:00;0.25;0.00;0.00
14880;PMS7003;7533;51.278;12.588;2024-02-23T09:10:06;0.00;0.00;0.00
14880;PMS7003;7533;51.278;12.588;2024-02-23T09:15:09;0.00;0.00;0.00
14880;PMS7003;7533;51.278;12.588;2024-02-23T09:20:12;0.00;0.00;0.00
14880;PMS7003;7533;51.278;12.588;2024-02-23T09:25:16;0.00;0.00;0.00
14880;PMS7003;7533;51.278;12.588;2024-02-23T09:30:19;0.00;0.00;0.00
14880;PMS7003;7533;51.278;12.588;2024-02-23T09:35:22;0.00;0.00;0.00
14880;PMS7003;7533;51.278;12.588;2024-02-23T09:40:27;0.00;0.00;0.00
14880;PMS7003;7533;51.278;12.588;2024-02-23T09:45:30;0.00;0.00;0.00
14880;PMS7003;7533;51.278;12.588;2024-02-23T09:50:33;0.00;0.00;0.00
14880;PMS7003;7533;51.278;12.588;2024-02-23T09:55:37;0.00;0.00;0.00
14880;PMS7003;7533;51.278;12.588;2024-02-23T10:00:40;0.00;0.00;0.00
14880;PMS7003;7533;51.278;12.588;2024-02-23T10:05:44;0.00;0.00;0.00
14880;PMS7003;7533;51.278;12.588;2024-02-23T10:10:48;0.00;0.00;0.00
14880;PMS7003;7533;51.278;12.588;2024-02-23T10:15:53;0.00;0.00;0.00
14880;PMS7003;7533;51.278;12.588;2024-02-23T10:21:15;0.00;0.00;0.00
14880;PMS7003;7533;51.278;12.588;2024-02-23T10:26:19;0.00;0.00;0.00
14880;PMS7003;7533;51.278;12.588;2024-02-23T10:31:24;1.25;0.00;0.00
14880;PMS7003;7533;51.278;12.588;2024-02-23T10:36:27;0.00;0.00;0.00
14880;PMS7003;7533;51.278;12.588;2024-02-23T10:41:34;0.00;0.00;0.00
14880;PMS7003;7533;51.278;12.588;2024-02-23T10:46:38;0.00;0.00;0.00
14880;PMS7003;7533;51.278;12.588;2024-02-23T10:51:42;0.00;0.00;0.00
14880;PMS7003;7533;51.278;12.588;2024-02-23T10:56:48;0.00;0.00;0.00
14880;PMS7003;7533;51.278;12.588;2024-02-23T11:01:52;0.00;0.00;0.00
14880;PMS7003;7533;51.278;12.588;2024-02-23T11:06:58;0.00;0.00;0.00
14880;PMS7003;7533;51.278;12.588;2024-02-23T11:12:08;0.00;0.00;0.00
14880;PMS7003;7533;51.278;12.588;2024-02-23T11:17:17;0.00;0.00;0.00
14880;PMS7003;7533;51.278;12.588;2024-02-23T11:22:24;0.00;0.00;0.00
14880;PMS7003;7533;51.278;12.588;2024-02-23T11:27:40;0.75;0.00;0.00
14880;PMS7003;7533;51.278;12.588;2024-02-23T11:32:45;0.00;0.00;0.00
14880;PMS7003;7533;51.278;12.588;2024-02-23T11:37:51;0.00;0.00;0.00
14880;PMS7003;7533;51.278;12.588;2024-02-23T11:43:12;0.00;0.00;0.00
14880;PMS7003;7533;51.278;12.588;2024-02-23T11:48:15;0.75;0.00;0.00
14880;PMS7003;7533;51.278;12.588;2024-02-23T11:53:18;0.25;0.00;0.00
14880;PMS7003;7533;51.278;12.588;2024-02-23T11:58:23;0.00;0.00;0.00
14880;PMS7003;7533;51.278;12.588;2024-02-23T12:03:26;0.00;0.00;0.00
14880;PMS7003;7533;51.278;12.588;2024-02-23T12:08:30;0.00;0.00;0.00
14880;PMS7003;7533;51.278;12.588;2024-02-23T12:13:40;1.25;1.25;0.00
14880;PMS7003;7533;51.278;12.588;2024-02-23T12:18:43;0.00;0.00;0.00
14880;PMS7003;7533;51.278;12.588;2024-02-23T12:23:48;0.00;0.00;0.00
14880;PMS7003;7533;51.278;12.588;2024-02-23T12:28:53;0.50;0.00;0.00
14880;PMS7003;7533;51.278;12.588;2024-02-23T12:34:03;0.50;0.50;0.00
14880;PMS7003;7533;51.278;12.588;2024-02-23T12:39:06;0.00;0.00;0.00
14880;PMS7003;7533;51.278;12.588;2024-02-23T12:44:10;0.00;0.00;0.00
14880;PMS7003;7533;51.278;12.588;2024-02-23T12:49:13;0.00;0.00;0.00
14880;PMS7003;7533;51.278;12.588;2024-02-23T12:54:17;0.00;0.00;0.00
14880;PMS7003;7533;51.278;12.588;2024-02-23T12:59:21;0.00;0.00;0.00
14880;PMS7003;7533;51.278;12.588;2024-02-23T13:04:25;0.00;0.00;0.00
14880;PMS7003;7533;51.278;12.588;2024-02-23T13:09:28;0.50;0.00;0.00
14880;PMS7003;7533;51.278;12.588;2024-02-23T13:14:33;0.25;0.00;0.00
14880;PMS7003;7533;51.278;12.588;2024-02-23T13:19:36;0.75;0.00;0.00
14880;PMS7003;7533;51.278;12.588;2024-02-23T13:24:39;0.25;0.00;0.00
14880;PMS7003;7533;51.278;12.588;2024-02-23T13:29:43;0.00;0.00;0.00
14880;PMS7003;7533;51.278;12.588;2024-02-23T13:34:46;1.00;0.00;0.00
14880;PMS7003;7533;51.278;12.588;2024-02-23T13:39:49;0.25;0.00;0.00
14880;PMS7003;7533;51.278;12.588;2024-02-23T13:44:53;0.00;0.00;0.00
14880;PMS7003;7533;51.278;12.588;2024-02-23T13:49:58;0.00;0.00;0.00
14880;PMS7003;7533;51.278;12.588;2024-02-23T13:55:01;0.00;0.00;0.00
14880;PMS7003;7533;51.278;12.588;2024-02-23T14:00:06;0.00;0.00;0.00
14880;PMS7003;7533;51.278;12.588;2024-02-23T14:05:14;0.00;0.00;0.00
14880;PMS7003;7533;51.278;12.588;2024-02-23T14:10:19;0.00;0.00;0.00
14880;PMS7003;7533;51.278;12.588;2024-02-23T14:15:24;0.00;0.00;0.00
14880;PMS7003;7533;51.278;12.588;2024-02-23T14:20:28;0.00;0.00;0.00
14880;PMS7003;7533;51.278;12.588;2024-02-23T14:25:31;0.00;0.00;0.00
14880;PMS7003;7533;51.278;12.588;2024-02-23T14:30:35;0.00;0.00;0.00
14880;PMS7003;7533;51.278;12.588;2024-02-23T14:35:38;0.50;0.50;0.00
14880;PMS7003;7533;51.278;12.588;2024-02-23T14:40:41;2.25;0.25;0.00
14880;PMS7003;7533;51.278;12.588;2024-02-23T14:45:45;0.00;0.00;0.00
14880;PMS7003;7533;51.278;12.588;2024-02-23T14:50:50;1.00;1.00;0.00
14880;PMS7003;7533;51.278;12.588;2024-02-23T14:55:53;0.00;0.00;0.00
14880;PMS7003;7533;51.278;12.588;2024-02-23T15:00:57;0.00;0.00;0.00
14880;PMS7003;7533;51.278;12.588;2024-02-23T15:06:00;0.00;0.00;0.00
14880;PMS7003;7533;51.278;12.588;2024-02-23T15:11:07;1.00;1.00;0.00
14880;PMS7003;7533;51.278;12.588;2024-02-23T15:16:11;1.00;1.00;0.00
14880;PMS7003;7533;51.278;12.588;2024-02-23T15:21:14;2.00;0.00;0.00
14880;PMS7003;7533;51.278;12.588;2024-02-23T15:26:19;0.25;0.25;0.00
14880;PMS7003;7533;51.278;12.588;2024-02-23T15:31:23;0.00;0.00;0.00
14880;PMS7003;7533;51.278;12.588;2024-02-23T15:36:26;0.50;0.00;0.00
14880;PMS7003;7533;51.278;12.588;2024-02-23T15:41:29;1.00;1.00;0.00
14880;PMS7003;7533;51.278;12.588;2024-02-23T15:46:34;0.25;0.25;0.00
14880;PMS7003;7533;51.278;12.588;2024-02-23T15:51:37;1.00;1.00;0.00
14880;PMS7003;7533;51.278;12.588;2024-02-23T15:56:55;1.00;0.50;0.00
14880;PMS7003;7533;51.278;12.588;2024-02-23T16:01:59;0.50;0.50;0.00
14880;PMS7003;7533;51.278;12.588;2024-02-23T16:07:04;1.00;0.50;0.00
14880;PMS7003;7533;51.278;12.588;2024-02-23T16:12:34;1.00;1.00;0.00
14880;PMS7003;7533;51.278;12.588;2024-02-23T16:17:51;0.50;0.00;0.00
14880;PMS7003;7533;51.278;12.588;2024-02-23T16:23:21;0.25;0.25;0.00
14880;PMS7003;7533;51.278;12.588;2024-02-23T16:28:38;1.00;1.00;0.00
14880;PMS7003;7533;51.278;12.588;2024-02-23T16:34:09;0.00;0.00;0.00
14880;PMS7003;7533;51.278;12.588;2024-02-23T16:39:26;0.00;0.00;0.00
14880;PMS7003;7533;51.278;12.588;2024-02-23T16:44:56;0.50;0.50;0.00
14880;PMS7003;7533;51.278;12.588;2024-02-23T16:50:13;0.00;0.00;0.00
14880;PMS7003;7533;51.278;12.588;2024-02-23T16:55:44;0.00;0.00;0.00
14880;PMS7003;7533;51.278;12.588;2024-02-23T17:01:00;0.75;0.75;0.00
14880;PMS7003;7533;51.278;12.588;2024-02-23T17:06:33;0.00;0.00;0.00
14880;PMS7003;7533;51.278;12.588;2024-02-23T17:11:49;1.75;0.50;0.00
14880;PMS7003;7533;51.278;12.588;2024-02-23T17:17:19;0.25;0.25;0.00
14880;PMS7003;7533;51.278;12.588;2024-02-23T17:22:36;0.25;0.25;0.00
14880;PMS7003;7533;51.278;12.588;2024-02-23T17:28:06;0.50;0.00;0.00
14880;PMS7003;7533;51.278;12.588;2024-02-23T17:33:23;0.25;0.25;0.00
14880;PMS7003;7533;51.278;12.588;2024-02-23T17:38:54;0.00;0.00;0.00
14880;PMS7003;7533;51.278;12.588;2024-02-23T17:44:24;1.00;0.00;0.00
14880;PMS7003;7533;51.278;12.588;2024-02-23T17:49:42;1.00;0.00;0.00
14880;PMS7003;7533;51.278;12.588;2024-02-23T17:55:13;0.00;0.00;0.00
14880;PMS7003;7533;51.278;12.588;2024-02-23T18:00:30;1.00;1.00;0.00
14880;PMS7003;7533;51.278;12.588;2024-02-23T18:06:00;0.25;0.25;0.00
14880;PMS7003;7533;51.278;12.588;2024-02-23T18:11:18;0.00;0.00;0.00
14880;PMS7003;7533;51.278;12.588;2024-02-23T18:16:47;0.25;0.25;0.00
14880;PMS7003;7533;51.278;12.588;2024-02-23T18:22:04;0.50;0.50;0.00
14880;PMS7003;7533;51.278;12.588;2024-02-23T18:27:36;0.00;0.00;0.00
14880;PMS7003;7533;51.278;12.588;2024-02-23T18:32:53;1.00;0.25;0.00
14880;PMS7003;7533;51.278;12.588;2024-02-23T18:38:23;0.00;0.00;0.00
14880;PMS7003;7533;51.278;12.588;2024-02-23T18:43:48;1.50;0.50;0.00
14880;PMS7003;7533;51.278;12.588;2024-02-23T18:49:17;0.00;0.00;0.00
14880;PMS7003;7533;51.278;12.588;2024-02-23T18:54:33;0.00;0.00;0.00
14880;PMS7003;7533;51.278;12.588;2024-02-23T19:00:05;0.00;0.00;0.00
14880;PMS7003;7533;51.278;12.588;2024-02-23T19:05:22;0.00;0.00;0.00
14880;PMS7003;7533;51.278;12.588;2024-02-23T19:10:52;0.00;0.00;0.00
14880;PMS7003;7533;51.278;12.588;2024-02-23T19:16:12;1.00;0.00;0.00
14880;PMS7003;7533;51.278;12.588;2024-02-23T19:21:42;0.00;0.00;0.00
14880;PMS7003;7533;51.278;12.588;2024-02-23T19:26:58;1.00;0.00;0.00
14880;PMS7003;7533;51.278;12.588;2024-02-23T19:32:30;0.00;0.00;0.00
14880;PMS7003;7533;51.278;12.588;2024-02-23T19:37:52;0.00;0.00;0.00
14880;PMS7003;7533;51.278;12.588;2024-02-23T19:43:22;1.00;1.00;0.00
14880;PMS7003;7533;51.278;12.588;2024-02-23T19:48:54;0.25;0.25;0.00
14880;PMS7003;7533;51.278;12.588;2024-02-23T19:54:11;0.00;0.00;0.00
14880;PMS7003;7533;51.278;12.588;2024-02-23T19:59:41;1.25;0.00;0.00
14880;PMS7003;7533;51.278;12.588;2024-02-23T20:05:05;0.25;0.00;0.00
14880;PMS7003;7533;51.278;12.588;2024-02-23T20:10:36;0.25;0.00;0.00
14880;PMS7003;7533;51.278;12.588;2024-02-23T20:15:53;0.00;0.00;0.00
14880;PMS7003;7533;51.278;12.588;2024-02-23T20:21:24;0.00;0.00;0.00
14880;PMS7003;7533;51.278;12.588;2024-02-23T20:26:41;2.25;0.00;0.00
14880;PMS7003;7533;51.278;12.588;2024-02-23T20:32:11;2.00;1.00;0.00
14880;PMS7003;7533;51.278;12.588;2024-02-23T20:37:38;1.00;1.00;0.00
14880;PMS7003;7533;51.278;12.588;2024-02-23T20:43:08;1.00;1.00;0.00
14880;PMS7003;7533;51.278;12.588;2024-02-23T20:48:24;0.50;0.50;0.00
14880;PMS7003;7533;51.278;12.588;2024-02-23T20:53:55;1.25;1.25;0.00
14880;PMS7003;7533;51.278;12.588;2024-02-23T20:59:18;0.50;0.50;0.00
14880;PMS7003;7533;51.278;12.588;2024-02-23T21:04:48;1.75;0.50;0.00
14880;PMS7003;7533;51.278;12.588;2024-02-23T21:10:06;1.00;1.00;0.50
14880;PMS7003;7533;51.278;12.588;2024-02-23T21:15:37;1.25;1.25;0.75
14880;PMS7003;7533;51.278;12.588;2024-02-23T21:20:53;2.00;1.00;0.00
14880;PMS7003;7533;51.278;12.588;2024-02-23T21:26:24;2.25;2.25;0.50
14880;PMS7003;7533;51.278;12.588;2024-02-23T21:31:40;1.00;1.00;0.75
14880;PMS7003;7533;51.278;12.588;2024-02-23T21:37:10;2.50;1.25;1.00
14880;PMS7003;7533;51.278;12.588;2024-02-23T21:42:31;2.50;2.50;1.00
14880;PMS7003;7533;51.278;12.588;2024-02-23T21:48:01;1.00;1.00;0.25
14880;PMS7003;7533;51.278;12.588;2024-02-23T21:53:24;1.00;1.00;1.00
14880;PMS7003;7533;51.278;12.588;2024-02-23T21:58:55;2.50;2.50;1.00
14880;PMS7003;7533;51.278;12.588;2024-02-23T22:04:11;3.00;3.00;1.00
14880;PMS7003;7533;51.278;12.588;2024-02-23T22:09:14;2.00;2.00;2.00
14880;PMS7003;7533;51.278;12.588;2024-02-23T22:14:18;2.50;2.00;1.00
14880;PMS7003;7533;51.278;12.588;2024-02-23T22:19:21;2.00;2.00;1.00
14880;PMS7003;7533;51.278;12.588;2024-02-23T22:24:24;2.75;2.75;2.00
14880;PMS7003;7533;51.278;12.588;2024-02-23T22:29:28;4.00;3.00;1.75
14880;PMS7003;7533;51.278;12.588;2024-02-23T22:34:31;2.00;2.00;1.00
14880;PMS7003;7533;51.278;12.588;2024-02-23T22:39:34;4.00;3.25;1.50
14880;PMS7003;7533;51.278;12.588;2024-02-23T22:44:39;3.00;3.00;2.00
14880;PMS7003;7533;51.278;12.588;2024-02-23T22:49:41;2.00;2.00;1.25
14880;PMS7003;7533;51.278;12.588;2024-02-23T22:54:44;2.00;2.00;1.00
14880;PMS7003;7533;51.278;12.588;2024-02-23T22:59:48;5.25;3.25;1.00
14880;PMS7003;7533;51.278;12.588;2024-02-23T23:04:51;2.25;2.25;1.00
14880;PMS7003;7533;51.278;12.588;2024-02-23T23:09:54;3.00;3.00;1.00
14880;PMS7003;7533;51.278;12.588;2024-02-23T23:14:58;3.00;2.50;1.25
14880;PMS7003;7533;51.278;12.588;2024-02-23T23:20:02;2.00;2.00;1.00
14880;PMS7003;7533;51.278;12.588;2024-02-23T23:25:07;2.50;2.00;1.00
14880;PMS7003;7533;51.278;12.588;2024-02-23T23:30:12;3.50;3.00;2.00
14880;PMS7003;7533;51.278;12.588;2024-02-23T23:35:16;3.25;3.00;1.50
14880;PMS7003;7533;51.278;12.588;2024-02-23T23:40:19;1.50;1.50;1.00
14880;PMS7003;7533;51.278;12.588;2024-02-23T23:45:23;3.00;3.00;2.00
14880;PMS7003;7533;51.278;12.588;2024-02-23T23:50:26;3.00;2.50;1.50
14880;PMS7003;7533;51.278;12.588;2024-02-23T23:55:29;3.00;3.00;1.50
